createdAt,value
2022-09-02T00:00:20.446Z,12.84
2022-09-02T00:02:48.812Z,12.75
2022-09-02T00:05:15.248Z,12.62
2022-09-02T00:07:41.600Z,12.67
2022-09-02T00:10:08.085Z,12.66
2022-09-02T00:12:34.440Z,12.56
2022-09-02T00:15:00.807Z,12.62
2022-09-02T00:17:28.041Z,12.69
2022-09-02T00:19:56.273Z,12.83
2022-09-02T00:22:23.845Z,12.93
2022-09-02T00:24:50.535Z,12.92
2022-09-02T00:27:17.547Z,12.89
2022-09-02T00:29:43.946Z,12.83
2022-09-02T00:32:10.349Z,12.71
2022-09-02T00:34:36.895Z,12.59
2022-09-02T00:37:03.247Z,12.51
2022-09-02T00:39:29.651Z,12.58
2022-09-02T00:41:56.105Z,12.49
2022-09-02T00:44:22.737Z,12.45
2022-09-02T00:46:49.088Z,12.36
2022-09-02T00:49:25.798Z,12.29
2022-09-02T00:52:11.045Z,12.34
2022-09-02T00:54:39.812Z,12.39
2022-09-02T00:57:07.490Z,12.47
2022-09-02T00:59:43.433Z,12.51
2022-09-02T01:02:10.199Z,12.53
2022-09-02T01:04:36.760Z,12.55
2022-09-02T01:07:03.401Z,12.45
2022-09-02T01:09:31.938Z,12.45
2022-09-02T01:11:58.793Z,12.42
2022-09-02T01:14:28.709Z,12.30
2022-09-02T01:16:55.406Z,12.29
2022-09-02T01:19:26.324Z,12.23
2022-09-02T01:21:53.445Z,12.17
2022-09-02T01:24:20.304Z,12.20
2022-09-02T01:26:46.758Z,12.19
2022-09-02T01:29:13.182Z,12.00
2022-09-02T01:31:39.849Z,11.99
2022-09-02T01:34:06.573Z,12.14
2022-09-02T01:36:33.914Z,12.17
2022-09-02T01:39:00.271Z,12.09
2022-09-02T01:41:26.634Z,12.12
2022-09-02T01:43:52.992Z,12.12
2022-09-02T01:46:20.355Z,12.29
2022-09-02T01:48:46.769Z,12.16
2022-09-02T01:51:15.396Z,12.18
2022-09-02T01:53:41.757Z,12.26
2022-09-02T01:56:08.127Z,12.18
2022-09-02T01:58:34.620Z,12.07
2022-09-02T02:01:01.083Z,12.12
2022-09-02T02:03:27.791Z,12.13
2022-09-02T02:05:55.408Z,12.19
2022-09-02T02:08:21.986Z,12.07
2022-09-02T02:10:48.575Z,11.99
2022-09-02T02:13:14.928Z,12.03
2022-09-02T02:15:41.453Z,12.02
2022-09-02T02:18:08.022Z,11.97
2022-09-02T02:20:34.373Z,12.03
2022-09-02T02:23:00.727Z,12.01
2022-09-02T02:25:27.171Z,11.94
2022-09-02T02:27:53.567Z,11.95
2022-09-02T02:30:20.171Z,11.93
2022-09-02T02:32:47.278Z,11.92
2022-09-02T02:35:14.522Z,12.02
2022-09-02T02:37:41.167Z,11.97
2022-09-02T02:40:07.990Z,12.01
2022-09-02T02:42:34.466Z,11.90
2022-09-02T02:45:01.069Z,11.98
2022-09-02T02:47:27.756Z,12.04
2022-09-02T02:49:54.128Z,11.94
2022-09-02T02:52:20.790Z,11.79
2022-09-02T02:54:47.177Z,11.89
2022-09-02T02:57:14.080Z,11.94
2022-09-02T02:59:40.437Z,11.89
2022-09-02T03:02:06.964Z,11.80
2022-09-02T03:04:34.231Z,11.96
2022-09-02T03:07:00.811Z,11.95
2022-09-02T03:09:27.178Z,12.01
2022-09-02T03:11:53.529Z,11.97
2022-09-02T03:14:19.917Z,11.92
2022-09-02T03:16:46.301Z,12.02
2022-09-02T03:19:14.191Z,11.99
2022-09-02T03:21:40.847Z,12.05
2022-09-02T03:24:07.687Z,11.89
2022-09-02T03:26:34.072Z,11.79
2022-09-02T03:29:00.426Z,11.79
2022-09-02T03:31:27.065Z,11.45
2022-09-02T03:33:53.564Z,11.64
2022-09-02T03:36:21.882Z,11.77
2022-09-02T03:38:48.236Z,11.57
2022-09-02T03:41:14.603Z,11.68
2022-09-02T03:43:40.977Z,11.64
2022-09-02T03:46:09.432Z,11.69
2022-09-02T03:48:35.853Z,11.62
2022-09-02T03:51:02.383Z,11.63
2022-09-02T03:53:29.057Z,11.59
2022-09-02T03:55:55.419Z,11.50
2022-09-02T03:58:23.586Z,11.51
2022-09-02T04:00:51.781Z,11.34
2022-09-02T04:03:18.500Z,11.39
2022-09-02T04:05:48.964Z,11.44
2022-09-02T04:08:15.377Z,11.49
2022-09-02T04:10:41.804Z,11.56
2022-09-02T04:13:08.175Z,11.47
2022-09-02T04:15:34.709Z,11.37
2022-09-02T04:18:01.326Z,11.26
2022-09-02T04:20:27.710Z,11.25
2022-09-02T04:22:54.073Z,11.45
2022-09-02T04:25:20.497Z,11.28
2022-09-02T04:27:54.048Z,11.26
2022-09-02T04:30:21.494Z,11.14
2022-09-02T04:32:48.431Z,11.34
2022-09-02T04:35:15.035Z,11.20
2022-09-02T04:37:41.379Z,11.16
2022-09-02T04:40:08.555Z,11.06
2022-09-02T04:42:35.640Z,11.04
2022-09-02T04:45:02.107Z,11.21
2022-09-02T04:47:28.446Z,11.20
2022-09-02T04:49:55.215Z,11.36
2022-09-02T04:52:21.629Z,11.36
2022-09-02T04:54:48.132Z,11.53
2022-09-02T04:57:14.488Z,11.78
2022-09-02T04:59:40.871Z,12.09
2022-09-02T05:02:07.298Z,12.24
2022-09-02T05:04:33.726Z,12.24
2022-09-02T05:07:01.844Z,12.21
2022-09-02T05:09:28.722Z,12.39
2022-09-02T05:11:57.755Z,12.47
2022-09-02T05:14:24.653Z,12.63
2022-09-02T05:16:53.889Z,12.69
2022-09-02T05:19:26.362Z,12.89
2022-09-02T05:21:57.530Z,12.96
2022-09-02T05:24:26.690Z,12.98
2022-09-02T05:26:53.308Z,13.05
2022-09-02T05:29:20.595Z,13.11
2022-09-02T05:31:47.582Z,13.38
2022-09-02T05:34:14.287Z,13.34
2022-09-02T05:36:40.916Z,13.30
2022-09-02T05:39:07.453Z,13.34
2022-09-02T05:41:33.834Z,13.43
2022-09-02T05:44:01.601Z,13.46
2022-09-02T05:46:30.205Z,13.55
2022-09-02T05:49:06.266Z,13.54
2022-09-02T05:51:41.502Z,13.64
2022-09-02T05:54:08.532Z,13.72
2022-09-02T05:56:34.892Z,13.75
2022-09-02T05:59:01.666Z,13.73
2022-09-02T06:01:28.398Z,13.82
2022-09-02T06:03:55.437Z,14.01
2022-09-02T06:06:23.810Z,14.11
2022-09-02T06:08:50.578Z,14.17
2022-09-02T06:11:17.928Z,14.19
2022-09-02T06:13:44.354Z,14.18
2022-09-02T06:16:13.436Z,14.36
2022-09-02T06:18:40.284Z,14.44
2022-09-02T06:21:06.686Z,14.54
2022-09-02T06:23:36.513Z,14.64
2022-09-02T06:26:02.884Z,14.73
2022-09-02T06:28:29.503Z,14.80
2022-09-02T06:30:55.924Z,14.89
2022-09-02T06:33:22.389Z,14.95
2022-09-02T06:35:49.363Z,15.13
2022-09-02T06:38:15.756Z,15.28
2022-09-02T06:40:54.994Z,15.37
2022-09-02T06:43:21.431Z,15.45
2022-09-02T06:45:47.821Z,15.46
2022-09-02T06:48:14.285Z,15.53
2022-09-02T06:50:44.200Z,15.68
2022-09-02T06:53:11.997Z,15.80
2022-09-02T06:55:39.031Z,15.80
2022-09-02T06:58:05.428Z,15.91
2022-09-02T07:00:31.857Z,16.05
2022-09-02T07:03:17.611Z,16.05
2022-09-02T07:05:43.962Z,16.28
2022-09-02T07:08:10.553Z,16.41
2022-09-02T07:10:39.924Z,16.53
2022-09-02T07:13:06.601Z,16.69
2022-09-02T07:15:33.142Z,16.52
2022-09-02T07:17:59.563Z,16.75
2022-09-02T07:20:26.152Z,17.04
2022-09-02T07:22:52.499Z,17.14
2022-09-02T07:25:18.941Z,16.96
2022-09-02T07:27:45.696Z,17.15
2022-09-02T07:30:12.380Z,17.38
2022-09-02T07:32:38.762Z,17.17
2022-09-02T07:35:06.285Z,17.49
2022-09-02T07:37:34.647Z,17.82
2022-09-02T07:40:04.862Z,18.10
2022-09-02T07:42:31.258Z,17.84
2022-09-02T07:44:57.631Z,17.97
2022-09-02T07:47:23.991Z,17.98
2022-09-02T07:52:37.802Z,17.94
2022-09-02T07:55:04.630Z,18.09
2022-09-02T07:57:31.823Z,18.32
2022-09-02T07:59:58.426Z,18.50
2022-09-02T08:02:24.904Z,18.65
2022-09-02T08:04:51.421Z,18.55
2022-09-02T08:07:24.002Z,18.81
2022-09-02T08:09:51.353Z,18.92
2022-09-02T08:12:20.184Z,19.00
2022-09-02T08:14:48.625Z,19.08
2022-09-02T08:17:15.356Z,19.31
2022-09-02T08:19:41.722Z,19.26
2022-09-02T08:22:08.344Z,19.43
2022-09-02T08:24:35.356Z,19.41
2022-09-02T08:27:01.830Z,19.53
2022-09-02T08:29:28.194Z,19.69
2022-09-02T08:31:54.588Z,19.81
2022-09-02T08:34:20.991Z,19.73
2022-09-02T08:36:56.385Z,19.57
2022-09-02T08:42:03.079Z,19.98
2022-09-02T08:44:29.810Z,20.02
2022-09-02T08:46:56.577Z,20.32
2022-09-02T08:49:25.414Z,19.72
2022-09-02T08:52:01.241Z,19.65
2022-09-02T08:54:47.608Z,20.16
2022-09-02T08:57:13.953Z,20.14
2022-09-02T09:02:22.461Z,20.57
2022-09-02T09:04:54.191Z,20.62
2022-09-02T09:07:23.517Z,20.61
2022-09-02T09:09:52.915Z,21.01
2022-09-02T09:12:37.952Z,20.70
2022-09-02T09:15:19.539Z,20.85
2022-09-02T09:17:49.566Z,20.89
2022-09-02T09:20:23.464Z,20.83
2022-09-02T09:22:49.925Z,21.04
2022-09-02T09:25:16.417Z,20.88
2022-09-02T09:27:42.971Z,20.93
2022-09-02T09:30:14.905Z,21.26
2022-09-02T09:32:43.063Z,21.58
2022-09-02T09:35:10.038Z,21.48
2022-09-02T09:37:40.357Z,21.62
2022-09-02T09:40:27.120Z,21.31
2022-09-02T09:42:57.611Z,21.75
2022-09-02T09:45:28.361Z,22.02
2022-09-02T09:48:13.783Z,22.08
2022-09-02T09:50:40.138Z,22.04
2022-09-02T09:53:22.415Z,22.24
2022-09-02T09:56:08.010Z,22.49
2022-09-02T09:58:40.311Z,22.46
2022-09-02T10:01:25.866Z,22.49
2022-09-02T10:03:55.936Z,21.84
2022-09-02T10:06:36.036Z,22.29
2022-09-02T10:09:03.470Z,22.59
2022-09-02T10:11:33.696Z,22.41
2022-09-02T10:14:00.746Z,22.37
2022-09-02T10:16:46.079Z,22.63
2022-09-02T10:19:31.415Z,22.77
2022-09-02T10:21:58.064Z,22.95
2022-09-02T10:24:27.155Z,23.00
2022-09-02T10:26:54.402Z,23.31
2022-09-02T10:29:20.693Z,23.45
2022-09-02T10:31:50.525Z,23.53
2022-09-02T10:34:17.210Z,22.93
2022-09-02T10:36:49.504Z,22.81
2022-09-02T10:39:21.619Z,21.77
2022-09-02T10:41:48.023Z,21.32
2022-09-02T10:44:33.915Z,21.14
2022-09-02T10:47:01.314Z,21.14
2022-09-02T10:49:34.385Z,21.21
2022-09-02T10:52:12.538Z,21.25
2022-09-02T10:54:42.746Z,21.99
2022-09-02T10:57:16.002Z,23.09
2022-09-02T10:59:44.254Z,23.81
2022-09-02T11:02:13.183Z,22.75
2022-09-02T11:04:54.858Z,22.46
2022-09-02T11:07:22.856Z,22.07
2022-09-02T11:09:50.544Z,22.76
2022-09-02T11:12:27.193Z,22.77
2022-09-02T11:14:56.561Z,22.67
2022-09-02T11:17:24.801Z,21.81
2022-09-02T11:20:09.750Z,22.18
2022-09-02T11:22:54.532Z,22.59
2022-09-02T11:25:24.699Z,22.31
2022-09-02T11:28:06.391Z,22.03
2022-09-02T11:30:37.507Z,21.82
2022-09-02T11:33:18.365Z,22.04
2022-09-02T11:35:45.007Z,21.95
2022-09-02T11:38:30.378Z,21.96
2022-09-02T11:44:00.941Z,22.33
2022-09-02T11:46:34.193Z,22.37
2022-09-02T11:49:00.863Z,22.41
2022-09-02T11:51:30.517Z,22.67
2022-09-02T11:53:56.920Z,23.19
2022-09-02T11:56:25.192Z,23.20
2022-09-02T11:58:54.488Z,23.06
2022-09-02T12:01:43.720Z,23.03
2022-09-02T12:04:55.905Z,22.74
2022-09-02T12:07:07.684Z,22.27
2022-09-02T12:09:47.872Z,22.61
2022-09-02T12:12:34.251Z,23.39
2022-09-02T12:15:01.064Z,24.34
2022-09-02T12:17:38.351Z,24.39
2022-09-02T12:20:08.841Z,24.40
2022-09-02T12:22:38.729Z,25.49
2022-09-02T12:25:24.279Z,26.19
2022-09-02T12:28:13.529Z,25.62
2022-09-02T12:31:07.379Z,25.12
2022-09-02T12:33:36.704Z,24.97
2022-09-02T12:36:04.763Z,24.84
2022-09-02T12:38:32.168Z,25.34
2022-09-02T12:41:00.922Z,25.58
2022-09-02T12:43:38.391Z,25.24
2022-09-02T12:46:14.851Z,24.91
2022-09-02T12:48:42.474Z,24.81
2022-09-02T12:51:08.822Z,24.79
2022-09-02T12:53:35.113Z,25.19
2022-09-02T12:56:04.075Z,25.69
2022-09-02T12:58:34.445Z,25.50
2022-09-02T13:01:19.182Z,25.58
2022-09-02T13:03:45.536Z,24.82
2022-09-02T13:06:12.487Z,24.16
2022-09-02T13:08:47.897Z,23.90
2022-09-02T13:11:33.091Z,23.76
2022-09-02T13:14:18.316Z,24.14
2022-09-02T13:17:19.047Z,24.21
2022-09-02T13:20:07.871Z,24.36
2022-09-02T13:22:39.056Z,23.39
2022-09-02T13:25:22.462Z,22.43
2022-09-02T13:27:55.096Z,23.14
2022-09-02T13:30:23.455Z,23.42
2022-09-02T13:32:56.754Z,24.00
2022-09-02T13:35:26.633Z,24.86
2022-09-02T13:37:59.570Z,25.73
2022-09-02T13:40:30.323Z,26.29
2022-09-02T13:42:57.416Z,26.04
2022-09-02T13:45:27.908Z,25.91
2022-09-02T13:47:54.960Z,25.74
2022-09-02T13:50:22.053Z,26.22
2022-09-02T13:55:37.839Z,24.95
2022-09-02T13:58:07.639Z,25.30
2022-09-02T14:00:38.395Z,25.13
2022-09-02T14:03:05.883Z,24.54
2022-09-02T14:05:33.115Z,24.36
2022-09-02T14:08:00.397Z,24.70
2022-09-02T14:10:27.888Z,25.51
2022-09-02T14:12:55.264Z,26.10
2022-09-02T14:15:28.380Z,26.05
2022-09-02T14:18:18.487Z,25.88
2022-09-02T14:20:56.003Z,25.82
2022-09-02T14:23:22.706Z,25.56
2022-09-02T14:25:50.082Z,25.46
2022-09-02T14:28:20.309Z,25.23
2022-09-02T14:30:54.332Z,24.72
2022-09-02T14:33:36.286Z,24.93
2022-09-02T14:36:03.659Z,24.86
2022-09-02T14:38:31.913Z,24.64
2022-09-02T14:41:02.979Z,24.78
2022-09-02T14:43:29.953Z,24.54
2022-09-02T14:46:04.041Z,24.50
2022-09-02T14:48:30.402Z,24.03
2022-09-02T14:51:02.471Z,23.75
2022-09-02T14:53:29.297Z,23.75
2022-09-02T14:55:55.832Z,23.86
2022-09-02T14:58:24.837Z,23.67
2022-09-02T15:00:58.519Z,23.06
2022-09-02T15:03:25.102Z,23.17
2022-09-02T15:05:52.299Z,22.90
2022-09-02T15:08:18.733Z,22.95
2022-09-02T15:10:45.170Z,22.96
2022-09-02T15:13:12.642Z,22.88
2022-09-02T15:15:39.439Z,22.93
2022-09-02T15:18:05.904Z,23.00
2022-09-02T15:20:35.494Z,23.00
2022-09-02T15:23:02.164Z,22.98
2022-09-02T15:25:28.796Z,23.24
2022-09-02T15:27:55.155Z,23.18
2022-09-02T15:30:21.857Z,23.00
2022-09-02T15:32:48.233Z,23.10
2022-09-02T15:35:14.590Z,23.08
2022-09-02T15:37:40.960Z,22.94
2022-09-02T15:40:08.068Z,22.92
2022-09-02T15:42:35.291Z,22.68
2022-09-02T15:45:02.643Z,22.75
2022-09-02T15:47:30.493Z,22.62
2022-09-02T15:49:57.695Z,22.49
2022-09-02T15:52:24.047Z,22.38
2022-09-02T15:54:50.675Z,22.26
2022-09-02T15:57:17.165Z,22.25
2022-09-02T15:59:43.604Z,22.19
2022-09-02T16:02:09.995Z,22.05
2022-09-02T16:04:36.380Z,21.88
2022-09-02T16:07:03.133Z,21.79
2022-09-02T16:09:29.522Z,21.58
2022-09-02T16:11:56.277Z,21.55
2022-09-02T16:14:23.947Z,21.39
2022-09-02T16:16:50.933Z,21.44
2022-09-02T16:19:18.990Z,21.43
2022-09-02T16:21:45.341Z,21.57
2022-09-02T16:24:11.989Z,21.57
2022-09-02T16:26:38.675Z,21.69
2022-09-02T16:29:06.045Z,21.70
2022-09-02T16:31:32.963Z,21.61
2022-09-02T16:34:03.450Z,21.68
2022-09-02T16:36:33.088Z,21.57
2022-09-02T16:39:03.155Z,21.52
2022-09-02T16:41:34.641Z,21.62
2022-09-02T16:44:01.943Z,21.63
2022-09-02T16:46:28.636Z,21.63
2022-09-02T16:48:55.511Z,21.64
2022-09-02T16:51:22.243Z,21.59
2022-09-02T16:53:52.186Z,21.57
2022-09-02T16:56:20.136Z,21.37
2022-09-02T16:58:46.542Z,21.31
2022-09-02T17:01:13.046Z,21.21
2022-09-02T17:03:39.776Z,21.29
2022-09-02T17:06:06.647Z,21.23
2022-09-02T17:08:33.276Z,21.25
2022-09-02T17:11:19.683Z,21.08
2022-09-02T17:13:46.799Z,20.99
2022-09-02T17:16:13.312Z,20.95
2022-09-02T17:18:39.679Z,20.92
2022-09-02T17:21:10.412Z,20.89
2022-09-02T17:23:36.765Z,20.86
2022-09-02T17:26:03.116Z,20.71
2022-09-02T17:28:29.714Z,20.67
2022-09-02T17:30:56.319Z,20.59
2022-09-02T17:33:22.881Z,20.53
2022-09-02T17:35:56.037Z,20.54
2022-09-02T17:38:26.755Z,20.30
2022-09-02T17:41:12.024Z,20.36
2022-09-02T17:43:38.568Z,20.13
2022-09-02T17:46:05.907Z,20.05
2022-09-02T17:48:45.158Z,19.99
2022-09-02T17:51:19.693Z,19.90
2022-09-02T17:53:46.247Z,19.68
2022-09-02T17:56:12.891Z,19.37
2022-09-02T17:58:43.206Z,19.21
2022-09-02T18:01:17.263Z,19.23
2022-09-02T18:03:46.522Z,19.01
2022-09-02T18:06:16.549Z,18.89
2022-09-02T18:08:42.821Z,18.68
2022-09-02T18:11:11.863Z,18.45
2022-09-02T18:13:41.241Z,18.40
2022-09-02T18:16:22.154Z,18.30
2022-09-02T18:19:00.456Z,18.33
2022-09-02T18:21:30.401Z,18.36
2022-09-02T18:24:00.411Z,18.29
2022-09-02T18:27:05.096Z,18.14
2022-09-02T18:29:32.043Z,18.16
2022-09-02T18:32:16.983Z,18.07
2022-09-02T18:35:02.081Z,18.16
2022-09-02T18:37:31.514Z,17.92
2022-09-02T18:40:03.262Z,17.80
2022-09-02T18:42:39.115Z,17.71
2022-09-02T18:45:05.573Z,17.58
2022-09-02T18:47:33.124Z,17.59
2022-09-02T18:50:00.313Z,17.49
2022-09-02T18:52:28.095Z,17.41
2022-09-02T18:55:00.675Z,17.37
2022-09-02T18:57:32.878Z,17.42
2022-09-02T19:00:04.798Z,17.36
2022-09-02T19:02:31.095Z,17.32
2022-09-02T19:04:58.131Z,17.19
2022-09-02T19:07:43.309Z,17.10
2022-09-02T19:10:09.749Z,17.10
2022-09-02T19:12:36.223Z,17.13
2022-09-02T19:15:03.307Z,17.19
2022-09-02T19:17:29.707Z,17.21
2022-09-02T19:19:56.064Z,17.28
2022-09-02T19:22:23.058Z,17.30
2022-09-02T19:24:50.757Z,17.30
2022-09-02T19:27:17.984Z,17.35
2022-09-02T19:29:45.688Z,17.40
2022-09-02T19:32:12.441Z,17.42
2022-09-02T19:34:39.120Z,17.37
2022-09-02T19:37:05.666Z,17.53
2022-09-02T19:39:32.519Z,17.57
2022-09-02T19:41:59.665Z,17.58
2022-09-02T19:44:26.060Z,17.54
2022-09-02T19:49:39.964Z,17.49
2022-09-02T19:52:06.576Z,17.50
2022-09-02T19:54:32.948Z,17.40
2022-09-02T19:56:59.310Z,17.47
2022-09-02T19:59:26.801Z,17.41
2022-09-02T20:01:53.256Z,17.38
2022-09-02T20:04:20.282Z,17.42
2022-09-02T20:06:46.933Z,17.30
2022-09-02T20:09:14.218Z,17.17
2022-09-02T20:11:41.187Z,17.12
2022-09-02T20:14:07.961Z,17.23
2022-09-02T20:16:34.412Z,17.21
2022-09-02T20:19:00.869Z,17.27
2022-09-02T20:21:28.176Z,17.29
2022-09-02T20:23:55.007Z,17.27
2022-09-02T20:26:30.624Z,17.30
2022-09-02T20:29:07.017Z,17.33
2022-09-02T20:31:39.949Z,17.34
2022-09-02T20:34:12.556Z,17.38
2022-09-02T20:36:41.560Z,17.28
2022-09-02T20:39:11.968Z,17.17
2022-09-02T20:41:57.901Z,17.12
2022-09-02T20:44:43.193Z,17.11
2022-09-02T20:47:15.721Z,17.06
2022-09-02T20:50:02.649Z,16.96
2022-09-02T20:52:36.643Z,16.86
2022-09-02T20:55:15.042Z,16.87
2022-09-02T20:57:50.485Z,16.84
2022-09-02T21:00:19.766Z,16.89
2022-09-02T21:02:49.402Z,16.87
2022-09-02T21:05:22.537Z,16.94
2022-09-02T21:07:51.180Z,16.85
2022-09-02T21:10:19.440Z,16.88
2022-09-02T21:13:02.346Z,17.00
2022-09-02T21:15:29.749Z,16.78
2022-09-02T21:18:16.064Z,16.79
2022-09-02T21:20:42.448Z,16.72
2022-09-02T21:23:11.184Z,16.64
2022-09-02T21:25:41.794Z,16.61
2022-09-02T21:28:09.142Z,16.39
2022-09-02T21:30:39.631Z,16.38
2022-09-02T21:33:06.695Z,16.35
2022-09-02T21:35:36.087Z,16.18
2022-09-02T21:38:03.799Z,16.23
2022-09-02T21:40:35.853Z,16.22
2022-09-02T21:43:18.979Z,16.20
2022-09-02T21:45:48.648Z,16.18
2022-09-02T21:48:18.574Z,16.15
2022-09-02T21:50:58.591Z,16.02
2022-09-02T21:53:36.571Z,16.03
2022-09-02T21:56:15.217Z,16.03
2022-09-02T21:58:50.906Z,15.90
2022-09-02T22:01:21.836Z,16.01
2022-09-02T22:03:53.525Z,15.95
2022-09-02T22:06:22.979Z,15.77
2022-09-02T22:08:55.080Z,15.64
2022-09-02T22:11:24.098Z,15.62
2022-09-02T22:13:50.467Z,15.66
2022-09-02T22:16:21.661Z,15.72
2022-09-02T22:18:54.254Z,15.78
2022-09-02T22:21:44.012Z,15.80
2022-09-02T22:24:10.572Z,15.84
2022-09-02T22:26:38.386Z,15.77
2022-09-02T22:29:06.376Z,15.76
2022-09-02T22:31:33.040Z,15.62
2022-09-02T22:33:59.691Z,15.78
2022-09-02T22:36:30.058Z,15.68
2022-09-02T22:39:02.272Z,15.74
2022-09-02T22:41:34.831Z,15.63
2022-09-02T22:44:08.567Z,15.48
2022-09-02T22:46:53.787Z,15.40
2022-09-02T22:49:39.347Z,15.43
2022-09-02T22:52:44.802Z,15.33
2022-09-02T22:55:12.071Z,15.21
2022-09-02T22:57:49.195Z,15.15
2022-09-02T23:00:16.063Z,15.14
2022-09-02T23:03:20.996Z,15.07
2022-09-02T23:05:53.048Z,15.08
2022-09-02T23:08:23.134Z,15.01
2022-09-02T23:10:54.769Z,14.97
2022-09-02T23:13:28.315Z,14.96
2022-09-02T23:15:58.508Z,14.93
2022-09-02T23:18:29.429Z,14.82
2022-09-02T23:20:58.979Z,14.73
2022-09-02T23:23:31.696Z,14.69
2022-09-02T23:26:09.483Z,14.67
2022-09-02T23:28:42.063Z,14.51
2022-09-02T23:31:31.678Z,14.41
2022-09-02T23:33:58.978Z,14.36
2022-09-02T23:36:35.998Z,14.34
2022-09-02T23:39:11.485Z,14.27
2022-09-02T23:41:38.814Z,14.23
2022-09-02T23:44:05.204Z,14.28
2022-09-02T23:46:50.522Z,14.16
2022-09-02T23:49:22.918Z,14.18
2022-09-02T23:52:05.598Z,14.25
2022-09-02T23:54:51.296Z,14.23
2022-09-02T23:57:23.628Z,14.21
